createdAt,value
2023-03-11T00:00:47.454Z,74.89
2023-03-11T00:03:26.059Z,74.90
2023-03-11T00:05:54.387Z,74.84
2023-03-11T00:08:24.244Z,74.81
2023-03-11T00:10:54.775Z,74.68
2023-03-11T00:13:22.898Z,74.62
2023-03-11T00:15:52.539Z,74.55
2023-03-11T00:18:20.153Z,74.48
2023-03-11T00:20:47.777Z,74.40
2023-03-11T00:23:15.963Z,74.34
2023-03-11T00:25:45.624Z,74.26
2023-03-11T00:28:14.900Z,74.24
2023-03-11T00:30:44.866Z,74.10
2023-03-11T00:33:15.095Z,74.04
2023-03-11T00:35:43.907Z,74.14
2023-03-11T00:38:18.551Z,74.14
2023-03-11T00:40:48.016Z,74.13
2023-03-11T00:43:17.061Z,74.27
2023-03-11T00:45:45.203Z,74.43
2023-03-11T00:48:13.936Z,74.51
2023-03-11T00:50:42.632Z,74.57
2023-03-11T00:53:10.853Z,74.44
2023-03-11T00:55:38.462Z,74.40
2023-03-11T00:58:07.053Z,74.45
2023-03-11T01:00:35.491Z,74.46
2023-03-11T01:03:03.642Z,74.47
2023-03-11T01:05:34.003Z,74.46
2023-03-11T01:08:02.546Z,74.18
2023-03-11T01:10:35.429Z,73.95
2023-03-11T01:13:04.055Z,73.88
2023-03-11T01:15:35.331Z,73.51
2023-03-11T01:18:03.251Z,73.18
2023-03-11T01:20:31.658Z,72.72
2023-03-11T01:22:59.245Z,72.67
2023-03-11T01:25:26.975Z,72.08
2023-03-11T01:27:54.567Z,71.36
2023-03-11T01:30:24.377Z,69.92
2023-03-11T01:32:53.513Z,69.40
2023-03-11T01:35:23.875Z,69.09
2023-03-11T01:37:51.795Z,68.47
2023-03-11T01:40:25.998Z,67.78
2023-03-11T01:42:53.592Z,67.33
2023-03-11T01:45:40.959Z,67.43
2023-03-11T01:48:10.108Z,66.81
2023-03-11T01:50:44.955Z,66.74
2023-03-11T01:53:14.719Z,66.49
2023-03-11T01:55:43.769Z,65.99
2023-03-11T01:58:16.941Z,66.10
2023-03-11T02:00:44.832Z,66.22
2023-03-11T02:03:30.259Z,66.28
2023-03-11T02:06:01.217Z,66.64
2023-03-11T02:08:28.927Z,67.10
2023-03-11T02:10:57.367Z,67.64
2023-03-11T02:13:25.060Z,69.12
2023-03-11T02:15:52.765Z,69.77
2023-03-11T02:18:20.966Z,70.29
2023-03-11T02:21:17.269Z,70.59
2023-03-11T02:23:56.195Z,71.05
2023-03-11T02:26:29.461Z,71.10
2023-03-11T02:28:58.284Z,71.29
2023-03-11T02:31:26.298Z,71.10
2023-03-11T02:33:54.909Z,71.12
2023-03-11T02:36:39.329Z,71.03
2023-03-11T02:39:08.696Z,70.76
2023-03-11T02:41:44.719Z,70.51
2023-03-11T02:44:15.956Z,70.22
2023-03-11T02:46:44.253Z,69.72
2023-03-11T02:49:13.017Z,69.16
2023-03-11T02:51:40.597Z,68.96
2023-03-11T02:54:08.300Z,68.71
2023-03-11T02:56:35.874Z,68.90
2023-03-11T02:59:03.566Z,68.38
2023-03-11T03:01:31.186Z,68.13
2023-03-11T03:03:58.943Z,68.21
2023-03-11T03:06:26.601Z,68.29
2023-03-11T03:08:54.918Z,68.24
2023-03-11T03:11:22.590Z,67.75
2023-03-11T03:13:50.159Z,67.70
2023-03-11T03:16:17.948Z,67.61
2023-03-11T03:18:45.757Z,67.99
2023-03-11T03:21:13.333Z,68.37
2023-03-11T03:23:40.957Z,68.52
2023-03-11T03:26:12.280Z,69.06
2023-03-11T03:28:39.902Z,69.70
2023-03-11T03:31:09.299Z,70.14
2023-03-11T03:33:37.246Z,70.67
2023-03-11T03:36:10.518Z,71.17
2023-03-11T03:38:38.390Z,71.33
2023-03-11T03:41:06.377Z,71.84
2023-03-11T03:43:33.929Z,72.30
2023-03-11T03:46:04.251Z,72.10
2023-03-11T03:48:32.576Z,71.81
2023-03-11T03:51:06.299Z,72.07
2023-03-11T03:53:35.575Z,73.11
2023-03-11T03:56:10.910Z,74.56
2023-03-11T03:58:38.525Z,75.23
2023-03-11T04:01:07.009Z,75.97
2023-03-11T04:03:35.364Z,76.61
2023-03-11T04:06:07.307Z,77.26
2023-03-11T04:08:34.859Z,77.77
2023-03-11T04:11:03.145Z,78.37
2023-03-11T04:13:30.725Z,79.13
2023-03-11T04:15:58.479Z,79.48
2023-03-11T04:18:26.305Z,79.50
2023-03-11T04:20:53.946Z,80.90
2023-03-11T04:23:21.591Z,81.85
2023-03-11T04:25:49.164Z,82.59
2023-03-11T04:28:16.762Z,83.14
2023-03-11T04:30:44.369Z,83.51
2023-03-11T04:33:12.097Z,83.89
2023-03-11T04:35:39.710Z,84.07
2023-03-11T04:38:07.435Z,84.26
2023-03-11T04:40:37.183Z,84.14
2023-03-11T04:43:05.124Z,84.70
2023-03-11T04:45:32.796Z,85.13
2023-03-11T04:48:00.352Z,85.30
2023-03-11T04:50:27.908Z,85.69
2023-03-11T04:52:55.528Z,86.28
2023-03-11T04:55:23.303Z,86.61
2023-03-11T04:57:50.898Z,87.04
2023-03-11T05:00:18.963Z,87.03
2023-03-11T05:02:46.669Z,87.22
2023-03-11T05:05:14.275Z,87.73
2023-03-11T05:07:41.989Z,87.52
2023-03-11T05:10:10.180Z,87.71
2023-03-11T05:12:37.793Z,87.66
2023-03-11T05:15:05.922Z,87.96
2023-03-11T05:17:33.551Z,87.43
2023-03-11T05:20:01.109Z,87.57
2023-03-11T05:22:28.675Z,87.77
2023-03-11T05:24:56.225Z,87.97
2023-03-11T05:27:23.837Z,87.43
2023-03-11T05:29:51.628Z,87.18
2023-03-11T05:32:19.248Z,87.31
2023-03-11T05:34:47.011Z,87.33
2023-03-11T05:37:15.740Z,87.44
2023-03-11T05:39:43.293Z,87.10
2023-03-11T05:42:10.858Z,87.02
2023-03-11T05:44:38.507Z,87.13
2023-03-11T05:47:06.214Z,87.42
2023-03-11T05:49:33.927Z,87.13
2023-03-11T05:52:01.559Z,86.72
2023-03-11T05:54:30.048Z,86.70
2023-03-11T05:56:57.585Z,86.91
2023-03-11T05:59:25.158Z,87.25
2023-03-11T06:01:52.707Z,87.71
2023-03-11T06:04:20.596Z,87.72
2023-03-11T06:06:48.273Z,88.27
2023-03-11T06:09:16.187Z,88.71
2023-03-11T06:11:43.805Z,88.79
2023-03-11T06:14:13.310Z,89.01
2023-03-11T06:16:41.834Z,88.89
2023-03-11T06:19:09.637Z,88.97
2023-03-11T06:21:37.226Z,88.90
2023-03-11T06:24:05.184Z,88.85
2023-03-11T06:26:32.771Z,89.22
2023-03-11T06:29:00.316Z,89.62
2023-03-11T06:31:29.348Z,89.93
2023-03-11T06:33:57.093Z,90.04
2023-03-11T06:36:25.041Z,90.02
2023-03-11T06:38:54.218Z,90.22
2023-03-11T06:41:21.880Z,90.47
2023-03-11T06:43:49.866Z,90.62
2023-03-11T06:46:19.980Z,90.88
2023-03-11T06:48:48.274Z,90.93
2023-03-11T06:51:15.934Z,91.18
2023-03-11T06:53:44.067Z,91.26
2023-03-11T06:56:13.591Z,91.45
2023-03-11T06:58:42.341Z,91.09
2023-03-11T07:01:23.822Z,90.94
2023-03-11T07:03:51.982Z,90.77
2023-03-11T07:06:25.748Z,90.84
2023-03-11T07:08:54.382Z,90.73
2023-03-11T07:11:24.936Z,90.44
2023-03-11T07:13:53.992Z,90.13
2023-03-11T07:16:27.321Z,89.99
2023-03-11T07:18:57.753Z,89.92
2023-03-11T07:21:25.745Z,89.91
2023-03-11T07:23:59.285Z,89.95
2023-03-11T07:26:28.382Z,89.88
2023-03-11T07:28:57.394Z,89.67
2023-03-11T07:31:27.607Z,89.84
2023-03-11T07:33:58.032Z,89.72
2023-03-11T07:36:25.817Z,89.59
2023-03-11T07:38:59.067Z,89.42
2023-03-11T07:41:27.029Z,89.32
2023-03-11T07:43:56.471Z,89.11
2023-03-11T07:46:25.982Z,89.10
2023-03-11T07:48:53.939Z,89.12
2023-03-11T07:51:25.374Z,88.98
2023-03-11T07:53:55.555Z,88.66
2023-03-11T07:56:24.846Z,88.61
2023-03-11T07:58:53.415Z,88.60
2023-03-11T08:01:24.861Z,88.65
2023-03-11T08:03:53.864Z,89.05
2023-03-11T08:06:25.456Z,89.04
2023-03-11T08:08:53.665Z,88.97
2023-03-11T08:11:21.318Z,88.98
2023-03-11T08:13:49.986Z,89.17
2023-03-11T08:16:20.035Z,89.25
2023-03-11T08:18:49.084Z,89.20
2023-03-11T08:21:20.102Z,88.89
2023-03-11T08:23:48.145Z,88.72
2023-03-11T08:26:18.431Z,88.71
2023-03-11T08:28:46.600Z,88.29
2023-03-11T08:31:23.403Z,88.14
2023-03-11T08:33:53.681Z,88.17
2023-03-11T08:36:21.612Z,88.48
2023-03-11T08:38:49.235Z,88.45
2023-03-11T08:41:17.264Z,88.44
2023-03-11T08:43:45.622Z,89.09
2023-03-11T08:46:24.705Z,89.10
2023-03-11T08:48:53.354Z,88.69
2023-03-11T08:51:22.337Z,89.21
2023-03-11T08:53:50.708Z,89.62
2023-03-11T08:56:19.055Z,89.90
2023-03-11T08:58:47.334Z,89.58
2023-03-11T09:01:15.063Z,89.05
2023-03-11T09:03:42.887Z,88.19
2023-03-11T09:06:14.404Z,87.96
2023-03-11T09:08:43.785Z,87.76
2023-03-11T09:11:12.162Z,88.01
2023-03-11T09:13:40.455Z,87.34
2023-03-11T09:16:16.794Z,86.51
2023-03-11T09:18:44.625Z,86.60
2023-03-11T09:21:12.947Z,87.24
2023-03-11T09:23:43.605Z,87.80
2023-03-11T09:26:12.777Z,87.34
2023-03-11T09:28:41.553Z,87.41
2023-03-11T09:31:09.454Z,87.90
2023-03-11T09:33:42.569Z,88.05
2023-03-11T09:36:15.484Z,88.18
2023-03-11T09:38:43.789Z,88.57
2023-03-11T09:41:22.263Z,88.93
2023-03-11T09:44:31.471Z,89.25
2023-03-11T09:47:20.842Z,89.63
2023-03-11T09:50:09.287Z,89.93
2023-03-11T09:53:20.298Z,89.90
2023-03-11T09:55:56.255Z,90.30
2023-03-11T09:58:35.879Z,90.47
2023-03-11T10:01:14.267Z,90.60
2023-03-11T10:03:42.955Z,90.58
2023-03-11T10:06:37.980Z,90.71
2023-03-11T10:09:39.401Z,90.89
2023-03-11T10:12:33.162Z,90.96
2023-03-11T10:15:34.527Z,90.95
2023-03-11T10:18:17.154Z,91.00
2023-03-11T10:21:03.533Z,91.08
2023-03-11T10:23:46.591Z,90.98
2023-03-11T10:26:14.251Z,91.13
2023-03-11T10:28:47.145Z,90.86
2023-03-11T10:31:17.900Z,90.70
2023-03-11T10:33:58.904Z,90.83
2023-03-11T10:36:35.498Z,90.60
2023-03-11T10:39:05.129Z,90.75
2023-03-11T10:41:44.102Z,90.47
2023-03-11T10:44:28.660Z,90.65
2023-03-11T10:46:56.373Z,90.84
2023-03-11T10:49:23.973Z,90.70
2023-03-11T10:51:53.981Z,90.59
2023-03-11T10:54:37.740Z,90.39
2023-03-11T10:57:20.335Z,90.46
2023-03-11T10:59:50.979Z,90.52
2023-03-11T11:02:23.318Z,90.54
2023-03-11T11:05:02.985Z,90.58
2023-03-11T11:07:34.099Z,90.42
2023-03-11T11:10:25.236Z,90.46
2023-03-11T11:13:02.350Z,90.35
2023-03-11T11:15:36.642Z,90.34
2023-03-11T11:18:18.052Z,90.44
2023-03-11T11:21:01.596Z,90.12
2023-03-11T11:23:44.967Z,90.29
2023-03-11T11:26:22.835Z,90.30
2023-03-11T11:29:09.505Z,90.26
2023-03-11T11:31:39.465Z,90.06
2023-03-11T11:34:30.521Z,89.80
2023-03-11T11:37:00.883Z,89.66
2023-03-11T11:39:30.732Z,89.22
2023-03-11T11:42:00.623Z,89.31
2023-03-11T11:44:34.833Z,89.30
2023-03-11T11:47:13.519Z,89.24
2023-03-11T11:49:50.792Z,89.15
2023-03-11T11:52:24.088Z,89.08
2023-03-11T11:54:54.119Z,89.08
2023-03-11T11:57:23.604Z,88.62
2023-03-11T11:59:51.302Z,87.98
2023-03-11T12:02:34.371Z,88.27
2023-03-11T12:05:15.113Z,88.14
2023-03-11T12:08:09.235Z,88.15
2023-03-11T12:10:42.787Z,88.36
2023-03-11T12:13:31.960Z,88.68
2023-03-11T12:16:06.524Z,87.27
2023-03-11T12:18:57.201Z,86.91
2023-03-11T12:22:06.250Z,86.73
2023-03-11T12:25:07.417Z,85.47
2023-03-11T12:27:44.728Z,84.07
2023-03-11T12:30:21.246Z,83.38
2023-03-11T12:32:56.686Z,84.02
2023-03-11T12:35:30.872Z,84.11
2023-03-11T12:38:01.509Z,84.40
2023-03-11T12:40:44.477Z,85.29
2023-03-11T12:43:23.899Z,85.50
2023-03-11T12:45:53.608Z,85.99
2023-03-11T12:48:30.053Z,86.51
2023-03-11T12:50:58.959Z,86.82
2023-03-11T12:53:44.568Z,86.86
2023-03-11T12:56:56.530Z,86.40
2023-03-11T13:00:01.959Z,85.98
2023-03-11T13:03:00.284Z,86.59
2023-03-11T13:05:46.196Z,87.09
2023-03-11T13:08:17.564Z,87.42
2023-03-11T13:10:55.789Z,87.83
2023-03-11T13:13:42.424Z,87.67
2023-03-11T13:16:12.833Z,88.09
2023-03-11T13:18:44.465Z,88.15
2023-03-11T13:21:27.384Z,88.39
2023-03-11T13:24:13.722Z,87.40
2023-03-11T13:26:47.211Z,87.15
2023-03-11T13:29:51.317Z,87.42
2023-03-11T13:32:34.149Z,87.63
2023-03-11T13:35:28.363Z,88.07
2023-03-11T13:38:34.139Z,88.21
2023-03-11T13:41:09.925Z,88.38
2023-03-11T13:43:46.791Z,88.25
2023-03-11T13:46:27.758Z,88.19
2023-03-11T13:49:05.146Z,88.46
2023-03-11T13:51:40.738Z,88.64
2023-03-11T13:54:17.139Z,88.05
2023-03-11T13:56:48.995Z,88.47
2023-03-11T13:59:31.636Z,88.22
2023-03-11T14:02:06.397Z,88.06
2023-03-11T14:04:36.721Z,87.99
2023-03-11T14:07:34.847Z,88.24
2023-03-11T14:10:11.307Z,87.79
2023-03-11T14:12:39.440Z,87.06
2023-03-11T14:15:15.958Z,87.01
2023-03-11T14:17:43.816Z,86.55
2023-03-11T14:20:20.975Z,86.74
2023-03-11T14:22:51.229Z,86.64
2023-03-11T14:25:24.441Z,85.99
2023-03-11T14:27:56.477Z,85.81
2023-03-11T14:30:27.935Z,86.19
2023-03-11T14:32:59.998Z,86.39
2023-03-11T14:35:28.429Z,86.00
2023-03-11T14:37:57.871Z,86.61
2023-03-11T14:40:27.216Z,86.93
2023-03-11T14:42:58.184Z,87.18
2023-03-11T14:45:29.864Z,87.36
2023-03-11T14:48:06.421Z,87.37
2023-03-11T14:50:35.155Z,87.93
2023-03-11T14:53:12.997Z,88.16
2023-03-11T14:55:51.127Z,88.58
2023-03-11T14:58:30.887Z,89.29
2023-03-11T15:01:05.240Z,89.57
2023-03-11T15:03:39.951Z,89.94
2023-03-11T15:06:16.579Z,90.09
2023-03-11T15:09:06.103Z,90.24
2023-03-11T15:11:45.652Z,90.24
2023-03-11T15:14:31.352Z,90.10
2023-03-11T15:17:41.164Z,89.72
2023-03-11T15:20:23.139Z,89.07
2023-03-11T15:22:57.581Z,88.79
2023-03-11T15:25:25.418Z,88.43
2023-03-11T15:27:53.171Z,87.58
2023-03-11T15:30:28.277Z,86.42
2023-03-11T15:32:57.369Z,85.00
2023-03-11T15:35:29.960Z,84.42
2023-03-11T15:38:20.893Z,84.62
2023-03-11T15:40:59.511Z,83.85
2023-03-11T15:43:33.175Z,83.49
2023-03-11T15:46:02.910Z,83.25
2023-03-11T15:48:30.584Z,83.95
2023-03-11T15:51:00.388Z,84.40
2023-03-11T15:53:29.817Z,84.61
2023-03-11T15:56:07.453Z,84.98
2023-03-11T15:58:37.514Z,85.59
2023-03-11T16:01:05.261Z,85.49
2023-03-11T16:03:32.937Z,86.27
2023-03-11T16:06:00.568Z,86.59
2023-03-11T16:08:28.129Z,87.10
2023-03-11T16:10:55.864Z,87.46
2023-03-11T16:13:23.515Z,87.97
2023-03-11T16:15:51.190Z,88.18
2023-03-11T16:18:18.767Z,88.37
2023-03-11T16:20:49.765Z,88.39
2023-03-11T16:23:23.840Z,88.43
2023-03-11T16:25:56.941Z,88.02
2023-03-11T16:28:24.751Z,86.09
2023-03-11T16:30:52.402Z,85.22
2023-03-11T16:33:20.091Z,84.89
2023-03-11T16:35:47.890Z,84.47
2023-03-11T16:38:15.492Z,84.64
2023-03-11T16:40:43.223Z,84.13
2023-03-11T16:43:12.784Z,83.82
2023-03-11T16:45:40.396Z,83.95
2023-03-11T16:48:07.999Z,83.56
2023-03-11T16:50:37.457Z,83.67
2023-03-11T16:53:05.458Z,83.92
2023-03-11T16:55:33.186Z,83.94
2023-03-11T16:58:00.964Z,83.60
2023-03-11T17:00:28.538Z,83.44
2023-03-11T17:02:56.204Z,83.37
2023-03-11T17:05:23.928Z,83.44
2023-03-11T17:07:56.451Z,83.24
2023-03-11T17:10:24.175Z,83.09
2023-03-11T17:12:52.136Z,83.76
2023-03-11T17:15:20.235Z,83.26
2023-03-11T17:17:47.867Z,82.45
2023-03-11T17:20:15.467Z,82.95
2023-03-11T17:22:43.165Z,83.00
2023-03-11T17:25:10.834Z,82.51
2023-03-11T17:27:38.429Z,82.10
2023-03-11T17:30:07.531Z,81.85
2023-03-11T17:32:35.189Z,81.69
2023-03-11T17:35:03.170Z,81.67
2023-03-11T17:37:31.181Z,81.78
2023-03-11T17:39:58.864Z,81.84
2023-03-11T17:42:26.488Z,81.54
2023-03-11T17:44:57.689Z,82.11
2023-03-11T17:47:25.364Z,81.78
2023-03-11T17:49:53.313Z,81.52
2023-03-11T17:52:21.018Z,82.07
2023-03-11T17:54:48.859Z,82.11
2023-03-11T17:57:16.471Z,82.77
2023-03-11T17:59:45.181Z,82.93
2023-03-11T18:02:13.586Z,83.04
2023-03-11T18:04:41.403Z,83.58
2023-03-11T18:07:09.062Z,83.62
2023-03-11T18:09:36.803Z,83.59
2023-03-11T18:12:04.930Z,83.06
2023-03-11T18:14:33.024Z,83.22
2023-03-11T18:17:00.643Z,83.15
2023-03-11T18:19:28.240Z,83.49
2023-03-11T18:21:55.909Z,83.12
2023-03-11T18:24:23.508Z,81.86
2023-03-11T18:26:51.091Z,82.23
2023-03-11T18:29:19.110Z,82.27
2023-03-11T18:31:47.109Z,82.33
2023-03-11T18:34:14.951Z,82.16
2023-03-11T18:36:42.680Z,82.26
2023-03-11T18:39:11.108Z,82.23
2023-03-11T18:41:38.732Z,82.66
2023-03-11T18:44:06.909Z,82.96
2023-03-11T18:46:34.682Z,82.65
2023-03-11T18:49:03.591Z,82.39
2023-03-11T18:51:32.200Z,82.97
2023-03-11T18:54:00.855Z,82.39
2023-03-11T18:56:29.259Z,83.06
2023-03-11T18:58:58.766Z,82.97
2023-03-11T19:01:26.917Z,83.11
2023-03-11T19:03:57.743Z,82.71
2023-03-11T19:06:27.879Z,82.06
2023-03-11T19:08:55.729Z,81.97
2023-03-11T19:11:24.979Z,81.41
2023-03-11T19:13:53.178Z,81.31
2023-03-11T19:16:23.954Z,81.51
2023-03-11T19:18:53.006Z,80.72
2023-03-11T19:21:21.444Z,80.88
2023-03-11T19:23:49.129Z,79.87
2023-03-11T19:26:16.709Z,80.03
2023-03-11T19:28:44.333Z,80.31
2023-03-11T19:31:12.228Z,80.37
2023-03-11T19:33:39.894Z,80.32
2023-03-11T19:36:08.354Z,80.55
2023-03-11T19:38:36.006Z,78.64
2023-03-11T19:41:10.483Z,79.19
2023-03-11T19:43:38.199Z,78.85
2023-03-11T19:46:07.340Z,79.04
2023-03-11T19:48:35.322Z,78.83
2023-03-11T19:51:03.416Z,79.11
2023-03-11T19:53:31.266Z,79.64
2023-03-11T19:55:59.290Z,80.07
2023-03-11T19:58:30.558Z,80.30
2023-03-11T20:00:59.407Z,80.25
2023-03-11T20:03:27.081Z,80.71
2023-03-11T20:05:55.855Z,80.89
2023-03-11T20:08:25.667Z,81.03
2023-03-11T20:10:53.901Z,80.75
2023-03-11T20:13:22.394Z,81.17
2023-03-11T20:15:50.423Z,81.36
2023-03-11T20:18:18.420Z,81.48
2023-03-11T20:20:46.526Z,81.56
2023-03-11T20:23:14.779Z,81.60
2023-03-11T20:25:42.438Z,81.47
2023-03-11T20:28:10.566Z,81.26
2023-03-11T20:30:39.261Z,81.59
2023-03-11T20:33:08.000Z,81.54
2023-03-11T20:35:35.726Z,81.51
2023-03-11T20:38:03.399Z,81.67
2023-03-11T20:40:31.014Z,81.15
2023-03-11T20:42:58.614Z,81.06
2023-03-11T20:45:26.413Z,81.19
2023-03-11T20:47:54.136Z,81.27
2023-03-11T20:50:22.840Z,80.80
2023-03-11T20:52:51.004Z,81.04
2023-03-11T20:55:18.791Z,80.89
2023-03-11T20:57:46.701Z,81.09
2023-03-11T21:00:14.855Z,80.87
2023-03-11T21:02:43.380Z,80.83
2023-03-11T21:05:12.598Z,80.88
2023-03-11T21:07:43.801Z,80.58
2023-03-11T21:10:12.437Z,80.52
2023-03-11T21:12:40.250Z,79.98
2023-03-11T21:15:08.814Z,80.18
2023-03-11T21:17:37.589Z,79.51
2023-03-11T21:20:06.126Z,79.39
2023-03-11T21:22:33.957Z,79.76
2023-03-11T21:25:01.678Z,79.53
2023-03-11T21:27:29.368Z,79.47
2023-03-11T21:29:58.935Z,79.43
2023-03-11T21:32:28.258Z,79.82
2023-03-11T21:34:58.385Z,79.50
2023-03-11T21:37:27.231Z,79.78
2023-03-11T21:39:55.123Z,79.43
2023-03-11T21:42:23.592Z,79.63
2023-03-11T21:44:51.544Z,79.37
2023-03-11T21:47:19.621Z,79.84
2023-03-11T21:49:47.432Z,79.85
2023-03-11T21:52:15.070Z,79.85
2023-03-11T21:54:42.804Z,80.08
2023-03-11T21:57:10.504Z,80.04
2023-03-11T21:59:38.258Z,79.88
2023-03-11T22:02:06.405Z,79.53
2023-03-11T22:04:34.103Z,79.47
2023-03-11T22:07:01.915Z,79.22
2023-03-11T22:09:29.604Z,79.22
2023-03-11T22:11:57.259Z,79.32
2023-03-11T22:14:24.981Z,79.58
2023-03-11T22:16:53.047Z,79.89
2023-03-11T22:19:20.859Z,79.90
2023-03-11T22:21:48.664Z,80.41
2023-03-11T22:24:16.280Z,80.70
2023-03-11T22:26:43.865Z,80.74
2023-03-11T22:29:13.546Z,80.91
2023-03-11T22:31:41.461Z,81.26
2023-03-11T22:34:09.143Z,81.36
2023-03-11T22:36:36.722Z,81.52
2023-03-11T22:39:04.798Z,81.89
2023-03-11T22:41:33.184Z,81.42
2023-03-11T22:44:00.851Z,81.97
2023-03-11T22:46:28.871Z,82.09
2023-03-11T22:48:56.540Z,82.43
2023-03-11T22:51:24.164Z,82.60
2023-03-11T22:53:51.761Z,82.63
2023-03-11T22:56:19.441Z,83.04
2023-03-11T22:58:47.035Z,82.93
2023-03-11T23:01:14.576Z,82.99
2023-03-11T23:03:43.518Z,83.21
2023-03-11T23:06:15.230Z,83.51
2023-03-11T23:08:42.939Z,83.02
2023-03-11T23:11:14.506Z,83.09
2023-03-11T23:13:43.485Z,82.82
2023-03-11T23:16:17.530Z,82.63
2023-03-11T23:18:46.249Z,82.37
2023-03-11T23:21:19.570Z,82.48
2023-03-11T23:23:47.545Z,82.14
2023-03-11T23:26:15.701Z,82.22
2023-03-11T23:28:43.772Z,81.99
2023-03-11T23:31:14.133Z,81.81
2023-03-11T23:33:42.636Z,81.48
2023-03-11T23:36:13.925Z,81.62
2023-03-11T23:38:42.042Z,81.49
2023-03-11T23:41:12.802Z,81.45
2023-03-11T23:43:40.863Z,81.49
2023-03-11T23:46:09.694Z,81.52
2023-03-11T23:48:38.279Z,81.71
2023-03-11T23:51:05.923Z,82.04
2023-03-11T23:53:33.891Z,82.01
2023-03-11T23:56:01.733Z,82.18
2023-03-11T23:58:29.348Z,82.23
